Terminal Aerodrome Forecast
Issued by NWS

Home | Current Version | Previous Version | Text Only | Print | Product List | Glossary On
Versions: 1 2 3 4 5 6 7 8 9 10 11 12 13 14 15 16 17 18 19 20 21 22 23 24 25 26 27 28 29 30 31 32 33 34 35 36 37 38
000
FTUS41 KALY 240559 CCA
TAFPSF
TAF COR
KPSF 240559Z 2406/2506 00000KT 6SM BR OVC040
      TEMPO 2408/2412 2SM BR BKN007 OVC015
     FM241600 19006KT 4SM BR BKN015 OVC025
     FM242000 19008G15KT P6SM SCT015 BKN045
     FM250300 20008KT P6SM OVC015=

USA.gov is the U.S. government's official web portal to all federal, state and local government web resources and services.